Flight Track Log - Related Links

Times and Time Zones

All times are in EDT time to prevent confusion due to time zone crossing. See the UAL3272 flight status page for this flight to view local times or setup timezone preferences in your user account.

Time Position Orientation Groundspeed Altitude Reporting Facility
EDT Latitude Longitude Course Direction KTS MPH feet Rate Location/Type
Sat 06:57:49 AM 43.6333 -79.7000 186° South 190 219 3,600  Level Toronto Center
Sat 06:58:49 AM 43.5833 -79.7333 206° Southwest 250 288 6,000 2,650 Climbing Toronto Center
Sat 06:59:49 AM 43.5000 -79.7167 172° South 270 311 8,900 2,550 Climbing Toronto Center
Sat 07:00:49 AM 43.4167 -79.7167 180° South 310 357 11,100 1,750 Climbing Toronto Center
Sat 07:01:49 AM 43.3167 -79.7667 200° South 350 403 12,400 1,500 Climbing Toronto Center
Sat 07:02:49 AM 43.2167 -79.8000 194° South 380 437 14,100 1,750 Climbing Toronto Center
Sat 07:03:00 AM 43.0535 -79.7400 186° South  Level FlightAware Approximate
Sat 07:03:49 AM 43.1167 -79.8333 194° South 380 437 15,900  Level Toronto Center
Sat 07:04:49 AM 43.0167 -79.8833 200° South 390 449 17,500 1,050 Climbing Toronto Center
Sat 07:05:49 AM 42.9000 -79.9333 197° South 400 460 18,000 353 Climbing Toronto Center
Sat 07:06:14 AM 42.8733 -79.9628 219° Southwest 403 464 18,000  Level Cleveland Center
Sat 07:07:14 AM 42.7589 -80.0147 198° South 425 489 18,000  Level Cleveland Center
Sat 07:08:14 AM 42.6444 -80.0553 195° South 430 495 18,000  Level Cleveland Center
Sat 07:09:14 AM 42.5322 -80.0986 196° South 430 495 18,000  Level Cleveland Center
Sat 07:10:14 AM 42.4197 -80.1417 196° South 430 495 18,000  Level Cleveland Center
Sat 07:11:14 AM 42.3075 -80.1872 197° South 430 495 18,000  Level Cleveland Center
Sat 07:12:14 AM 42.2200 -80.2775 217° Southwest 401 461 18,000  Level Cleveland Center
Sat 07:13:14 AM 42.1392 -80.3817 224° Southwest 406 467 18,000  Level Cleveland Center
Sat 07:14:14 AM 42.0578 -80.4825 223° Southwest 406 467 18,000 -50 Level Cleveland Center
Sat 07:15:14 AM 41.9869 -80.5775 225° Southwest 401 461 17,900 -400 Descending Cleveland Center
Sat 07:16:14 AM 41.9078 -80.6753 223° Southwest 393 452 17,200 -850 Descending Cleveland Center
Sat 07:17:14 AM 41.8264 -80.7753 222° Southwest 393 452 16,200 -1,000 Descending Cleveland Center
Sat 07:18:14 AM 41.7469 -80.8669 221° Southwest 393 452 15,200 -1,250 Descending Cleveland Center
Sat 07:19:14 AM 41.6489 -80.9194 202° Southwest 383 441 13,700 -1,600 Descending Cleveland Center
Sat 07:20:14 AM 41.5569 -80.9800 206° Southwest 383 441 12,000 -1,769 Descending Cleveland Center
Sat 07:20:32 AM 41.5400 -81.0269 244° Southwest 335 386 11,400 -1,500 Descending Cleveland Center
Sat 07:21:14 AM 41.5272 -81.1044 258° West 310 357 10,500 -923 Descending Cleveland Center
Sat 07:22:03 AM 41.5122 -81.1903 257° West 310 357 10,000 -275 Descending Cleveland Center
Sat 07:23:03 AM 41.4969 -81.3094 260° West 321 369 10,000  Level Cleveland Center
Sat 07:23:40 AM 41.4883 -81.3703 259° West 288 331 10,000  Level Cleveland Center
Sat 07:24:14 AM 41.4817 -81.4286 261° West 293 337 10,000  Level Cleveland Center
Sat 07:24:41 AM 41.4750 -81.4644 256° West 247 284 10,000 -500 Level Cleveland Center
Sat 07:25:14 AM 41.4683 -81.5197 261° West 264 304 9,500 -900 Descending Cleveland Center
Sat 07:25:41 AM 41.4639 -81.5614 262° West 252 290 9,100 -600 Descending Cleveland Center
Sat 07:26:14 AM 41.4467 -81.6053 242° Southwest 247 284 8,900 -98 Descending Cleveland Center
Sat 07:26:42 AM 41.4319 -81.6356 237° Southwest 203 234 9,000 100 Climbing Cleveland Center
Sat 07:27:14 AM 41.4169 -81.6686 239° Southwest 221 254 9,000 -393 Level Cleveland Center
Sat 07:27:43 AM 41.4022 -81.6986 237° Southwest 199 229 8,600 -900 Descending Cleveland Center
Sat 07:28:14 AM 41.3892 -81.7289 240° Southwest 200 230 8,100 -984 Descending Cleveland Center
Sat 07:28:44 AM 41.3703 -81.7536 224° Southwest 201 231 7,600 -1,000 Descending Cleveland Center
Sat 07:29:14 AM 41.3492 -81.7808 224° Southwest 194 223 7,100 -1,000 Descending Cleveland Center
Sat 07:29:44 AM 41.3300 -81.8108 230° Southwest 204 235 6,600 -1,000 Descending Cleveland Center
Sat 07:30:14 AM 41.3131 -81.8353 227° Southwest 200 230 6,100 -1,279 Descending Cleveland Center
Sat 07:30:45 AM 41.2961 -81.8656 233° Southwest 196 226 5,300 -1,370 Descending Cleveland Center
Sat 07:31:46 AM 41.2869 -81.9372 260° West 197 227 4,000 -1,230 Descending Cleveland Center
Sat 07:32:47 AM 41.3303 -81.9767 326° Northwest 189 217 2,800 -893 Descending Cleveland Center
Sat 07:33:47 AM 41.3556 -81.9442 44° Northeast 101 116 2,200 -645 Descending Cleveland Center
Sat 07:34:48 AM 41.3769 -81.9086 51° Northeast 112 129 1,500 -689 Descending Cleveland Center

Login

Don't have an account? Register now (free) for customized features, flight alerts, and more!